Sanborn, Minnesota
Current Conditions -  °F | °C
As of 7:33 PM on Monday 22 Dec 2014 (Local Time) from KMWM Reporting Station
Light Snow Light Snow  
Wind Chill: 28°   Ceiling: 200
Heat Index: 34°   Visibility: 2mi
Dew Point: 34°   Wind: 7mph
Humidity: 100%   Direction: 90°E
Pressure: 29.51"   Gusts: NA
Location:  44.21°N, 95.13°W
Report Text: KMWM 230133Z AUTO 09006KT 2SM -SN OVC002 01/01 A2951 RMK AO2
Loading
Personal Weather Stations






























Interactive Weather Map New forecast layout! Learn more

10-Day Weather Forecast

Advertisements
Track Severe Weather on mobile